Time;durP1;ratioP1;P1;durP2;ratioP2;P2;SDS_P1;SDS_P2;PMS_P1;PMS_P2;Temp;Humidity;BMP_temperature;BMP_pressure;BME280_temperature;BME280_humidity;BME280_pressure;Samples;Min_cycle;Max_cycle;Signal;HPM_P1;HPM_P2
2022/11/15 00:00:49;;;;;;;17.50;11.60;;;;;;;7.07;93.04;100164.31;4963700;28;20248;-68
2022/11/15 00:03:20;;;;;;;19.57;11.97;;;;;;;7.33;92.51;100177.22;4953125;28;20246;-67
2022/11/15 00:05:47;;;;;;;18.47;11.80;;;;;;;7.39;92.27;100178.25;4941646;28;20281;-67
2022/11/15 00:08:13;;;;;;;16.63;10.13;;;;;;;7.30;92.53;100170.13;4951109;29;20316;-68
2022/11/15 00:10:40;;;;;;;17.60;11.37;;;;;;;7.27;92.81;100167.44;4949444;28;20288;-67
2022/11/15 00:13:08;;;;;;;19.60;11.73;;;;;;;7.24;92.68;100170.00;4951388;28;20318;-68
2022/11/15 00:15:36;;;;;;;17.93;11.83;;;;;;;7.19;92.55;100175.13;4947111;28;20702;-67
2022/11/15 00:18:04;;;;;;;18.83;11.73;;;;;;;7.18;93.19;100170.72;4949547;28;20619;-67
2022/11/15 00:20:33;;;;;;;20.10;12.03;;;;;;;7.20;93.02;100158.50;4951070;28;20634;-67
2022/11/15 00:23:00;;;;;;;25.40;11.93;;;;;;;7.26;92.86;100160.38;4947631;28;20638;-68
2022/11/15 00:25:27;;;;;;;20.60;12.40;;;;;;;7.31;92.42;100166.66;4949691;28;20298;-67
2022/11/15 00:27:58;;;;;;;17.97;11.50;;;;;;;7.25;92.49;100149.81;4947108;28;20195;-67
2022/11/15 00:30:24;;;;;;;17.97;11.60;;;;;;;7.41;91.99;100152.81;4949827;28;20251;-67
2022/11/15 00:32:51;;;;;;;16.97;11.07;;;;;;;7.35;91.40;100136.00;4948684;28;20648;-67
2022/11/15 00:35:18;;;;;;;19.33;12.53;;;;;;;7.39;92.02;100151.00;4949512;28;20293;-67
2022/11/15 00:37:46;;;;;;;17.70;11.00;;;;;;;7.35;91.82;100157.97;4949426;28;20629;-67
2022/11/15 00:40:13;;;;;;;16.80;10.43;;;;;;;7.38;92.02;100139.59;4948280;28;20226;-67
2022/11/15 00:42:40;;;;;;;18.10;11.20;;;;;;;7.37;92.20;100143.06;4950523;28;20261;-67
2022/11/15 00:45:07;;;;;;;20.53;11.90;;;;;;;7.36;92.18;100130.75;4948771;28;20294;-67
2022/11/15 00:47:34;;;;;;;17.37;10.90;;;;;;;7.48;91.94;100143.31;4947531;28;20237;-68
2022/11/15 00:50:00;;;;;;;22.33;11.27;;;;;;;7.49;91.79;100135.44;4949261;28;20222;-67
2022/11/15 00:52:26;;;;;;;17.73;11.03;;;;;;;7.56;90.99;100139.06;4950648;28;20247;-67
2022/11/15 00:54:52;;;;;;;15.37;10.40;;;;;;;7.40;91.42;100127.34;4949506;28;20625;-67
2022/11/15 00:57:19;;;;;;;19.33;11.07;;;;;;;7.36;91.89;100133.38;4949406;28;20233;-66
2022/11/15 00:59:45;;;;;;;18.13;10.90;;;;;;;7.32;92.03;100130.66;4947417;28;20257;-67
2022/11/15 01:02:11;;;;;;;19.43;11.83;;;;;;;7.33;92.46;100124.53;4949076;28;20254;-67
2022/11/15 01:04:38;;;;;;;17.13;11.17;;;;;;;7.30;92.28;100124.47;4950776;28;20236;-66
2022/11/15 01:07:04;;;;;;;16.50;11.10;;;;;;;7.41;92.43;100122.94;4948151;28;20222;-68
2022/11/15 01:09:30;;;;;;;16.87;11.13;;;;;;;7.45;92.00;100122.16;4949452;28;20229;-67
2022/11/15 01:11:57;;;;;;;15.77;10.80;;;;;;;7.33;92.13;100127.16;4950303;28;20291;-68
2022/11/15 01:14:23;;;;;;;17.43;10.47;;;;;;;7.32;92.92;100141.19;4949441;28;20285;-67
2022/11/15 01:16:51;;;;;;;17.53;10.90;;;;;;;7.37;93.47;100131.66;4945095;28;20594;-67
2022/11/15 01:19:17;;;;;;;17.87;10.20;;;;;;;7.49;93.14;100126.63;4948846;28;20198;-67
2022/11/15 01:21:43;;;;;;;19.23;10.40;;;;;;;7.68;92.69;100126.19;4950257;28;20256;-68
2022/11/15 01:24:12;;;;;;;19.97;10.90;;;;;;;7.75;92.27;100122.81;4946731;28;20256;-68
2022/11/15 01:26:39;;;;;;;17.77;10.50;;;;;;;7.79;92.40;100126.41;4946268;28;20583;-68
2022/11/15 01:29:05;;;;;;;17.00;10.33;;;;;;;7.82;92.21;100113.28;4947768;28;20296;-67
2022/11/15 01:31:32;;;;;;;16.20;11.00;;;;;;;7.85;91.62;100114.22;4950057;28;20471;-67
2022/11/15 01:33:58;;;;;;;17.43;10.47;;;;;;;7.87;91.84;100114.25;4947229;28;20697;-67
2022/11/15 01:36:24;;;;;;;16.10;9.90;;;;;;;7.97;91.62;100115.31;4948195;28;20759;-67
2022/11/15 01:38:55;;;;;;;17.03;10.43;;;;;;;8.07;90.09;100094.44;4948646;28;20304;-67
2022/11/15 01:41:32;;;;;;;16.03;10.37;;;;;;;8.21;89.80;100106.97;4950137;28;20329;-67
2022/11/15 01:44:36;;;;;;;17.63;10.23;;;;;;;8.14;89.90;100111.25;4949192;28;20254;-67
2022/11/15 01:47:07;;;;;;;16.43;9.73;;;;;;;8.12;90.30;100103.31;4946022;28;20250;-67
2022/11/15 01:49:37;;;;;;;13.67;9.70;;;;;;;8.11;90.20;100104.19;4947571;29;20238;-66
2022/11/15 01:52:08;;;;;;;15.53;10.33;;;;;;;8.23;89.90;100097.34;4944270;28;20245;-68
2022/11/15 01:54:35;;;;;;;15.63;9.83;;;;;;;8.08;89.87;100082.13;4948783;28;20233;-67
2022/11/15 01:57:06;;;;;;;15.77;9.70;;;;;;;8.19;90.29;100101.69;4945828;28;20294;-65
2022/11/15 01:59:33;;;;;;;13.77;9.33;;;;;;;8.18;90.70;100092.00;4949851;28;20632;-67
2022/11/15 02:02:00;;;;;;;13.90;9.40;;;;;;;8.13;90.56;100086.63;4948626;28;20326;-67
2022/11/15 02:04:30;;;;;;;15.43;9.87;;;;;;;8.09;90.48;100084.81;4953695;28;20207;-67
2022/11/15 02:06:56;;;;;;;16.93;10.63;;;;;;;8.11;90.76;100079.56;4949353;28;20611;-67
2022/11/15 02:09:23;;;;;;;16.43;10.33;;;;;;;8.08;90.37;100072.47;4953291;28;20201;-67
2022/11/15 02:11:51;;;;;;;15.57;9.57;;;;;;;7.97;90.38;100068.72;4951948;28;20225;-67
2022/11/15 02:14:20;;;;;;;19.40;10.43;;;;;;;7.99;90.73;100076.66;4949704;28;20241;-66
2022/11/15 02:17:08;;;;;;;14.53;10.07;;;;;;;7.96;90.57;100072.22;4952596;28;20285;-67
2022/11/15 02:19:56;;;;;;;15.83;9.27;;;;;;;7.86;91.03;100068.53;4948574;28;20234;-68
2022/11/15 02:22:28;;;;;;;16.13;9.80;;;;;;;7.94;90.94;100078.34;4950893;28;20305;-67
2022/11/15 02:25:20;;;;;;;15.43;10.00;;;;;;;7.79;91.38;100063.13;4945962;28;20751;-65
2022/11/15 02:28:14;;;;;;;15.30;10.27;;;;;;;7.71;91.99;100065.63;4947481;28;20199;-66
2022/11/15 02:31:03;;;;;;;16.33;9.70;;;;;;;7.72;92.50;100071.78;4951672;28;20744;-67
2022/11/15 02:34:05;;;;;;;18.23;10.40;;;;;;;7.81;92.28;100061.41;4943440;28;20249;-67
2022/11/15 02:36:52;;;;;;;15.77;10.27;;;;;;;7.74;92.52;100056.88;4936087;28;20770;-66
2022/11/15 02:39:31;;;;;;;18.00;10.60;;;;;;;7.74;92.47;100054.25;4943590;28;20325;-67
2022/11/15 02:42:03;;;;;;;15.97;10.23;;;;;;;7.66;92.34;100050.56;4951219;28;20253;-66
2022/11/15 02:44:49;;;;;;;17.03;10.33;;;;;;;7.74;92.83;100054.25;4946218;28;20304;-67
2022/11/15 02:47:17;;;;;;;16.00;10.20;;;;;;;7.73;92.85;100058.63;4948552;28;20275;-67
2022/11/15 02:49:47;;;;;;;17.30;10.77;;;;;;;7.81;93.15;100058.78;4947140;28;20350;-67
2022/11/15 02:52:19;;;;;;;18.17;11.07;;;;;;;7.89;93.18;100051.00;4946725;28;20286;-67
2022/11/15 02:54:56;;;;;;;15.60;10.47;;;;;;;7.98;92.73;100051.16;4943536;29;20617;-67
2022/11/15 02:57:49;;;;;;;17.00;10.50;;;;;;;7.90;92.59;100026.41;4949376;28;20750;-67
2022/11/15 03:00:19;;;;;;;17.43;10.57;;;;;;;7.99;92.20;100040.63;4948152;28;20289;-67
2022/11/15 03:03:09;;;;;;;17.93;10.30;;;;;;;7.94;92.54;100034.41;4951287;28;20250;-66
2022/11/15 03:05:57;;;;;;;16.17;10.27;;;;;;;8.01;92.91;100038.06;4945136;28;20951;-66
2022/11/15 03:08:53;;;;;;;14.37;9.73;;;;;;;8.09;92.72;100037.34;4946798;28;20239;-67
2022/11/15 03:11:21;;;;;;;16.43;10.00;;;;;;;8.15;92.47;100040.06;4942134;28;20220;-67
2022/11/15 03:14:18;;;;;;;15.97;9.90;;;;;;;8.21;92.07;100035.75;4946889;28;20246;-67
2022/11/15 03:17:02;;;;;;;15.80;10.20;;;;;;;8.32;91.50;100042.97;4948646;28;20228;-67
2022/11/15 03:19:52;;;;;;;15.67;10.30;;;;;;;8.39;91.32;100033.44;4947288;28;20252;-66
2022/11/15 03:22:22;;;;;;;14.80;10.20;;;;;;;8.55;89.92;100042.53;4949171;28;20320;-67
2022/11/15 03:24:54;;;;;;;15.97;10.13;;;;;;;8.63;89.71;100044.41;4944084;28;20295;-67
2022/11/15 03:27:25;;;;;;;14.50;9.20;;;;;;;8.66;89.16;100044.44;4944466;28;20232;-67
2022/11/15 03:30:02;;;;;;;16.10;9.37;;;;;;;8.65;88.77;100039.16;4947362;28;20306;-68
2022/11/15 03:32:31;;;;;;;17.23;9.57;;;;;;;8.67;88.63;100040.06;4950666;28;20662;-67
2022/11/15 03:35:05;;;;;;;15.63;9.07;;;;;;;8.57;88.89;100038.16;4948886;28;20199;-66
2022/11/15 03:37:37;;;;;;;17.77;9.07;;;;;;;8.53;89.09;100038.97;4948686;28;20232;-67
2022/11/15 03:40:05;;;;;;;14.17;9.70;;;;;;;8.45;89.55;100044.13;4945157;28;20239;-67
2022/11/15 03:42:40;;;;;;;15.73;9.67;;;;;;;8.35;89.63;100034.25;4947317;28;20242;-67
2022/11/15 03:45:18;;;;;;;15.47;9.80;;;;;;;8.27;90.04;100041.13;4943416;28;20206;-67
2022/11/15 03:47:58;;;;;;;15.07;9.80;;;;;;;8.28;90.88;100035.88;4945949;28;20200;-67
2022/11/15 03:50:25;;;;;;;12.80;9.03;;;;;;;8.29;90.92;100031.50;4944780;28;20690;-67
2022/11/15 03:52:54;;;;;;;15.30;10.03;;;;;;;8.33;91.03;100038.59;4948061;28;20310;-67
2022/11/15 03:55:21;;;;;;;14.27;9.53;;;;;;;8.35;90.98;100035.16;4944736;28;20726;-67
2022/11/15 03:57:49;;;;;;;15.83;10.30;;;;;;;8.47;90.74;100035.38;4940481;28;20275;-67
2022/11/15 04:00:16;;;;;;;12.70;9.40;;;;;;;8.51;90.55;100045.97;4944440;28;20230;-67
2022/11/15 04:02:42;;;;;;;14.17;9.63;;;;;;;8.74;89.55;100045.44;4947717;28;20668;-67
2022/11/15 04:05:09;;;;;;;14.73;9.33;;;;;;;8.68;89.50;100048.00;4943651;28;20309;-67
2022/11/15 04:07:35;;;;;;;15.80;9.37;;;;;;;8.66;89.94;100047.09;4944682;28;20229;-67
2022/11/15 04:10:02;;;;;;;12.80;8.40;;;;;;;8.65;90.19;100049.72;4945635;28;20522;-67
2022/11/15 04:12:46;;;;;;;14.00;9.50;;;;;;;8.75;89.90;100044.59;4948947;28;20708;-67
2022/11/15 04:15:17;;;;;;;14.30;9.17;;;;;;;8.96;88.45;100049.31;4944874;28;20684;-67
2022/11/15 04:17:55;;;;;;;13.53;9.03;;;;;;;8.91;88.71;100050.13;4943741;28;20447;-67
2022/11/15 04:26:02;;;;;;;12.73;8.77;;;;;;;8.88;89.16;100050.97;4944123;29;20215;-67
2022/11/15 04:28:29;;;;;;;13.80;9.27;;;;;;;8.86;89.18;100033.31;4947522;28;20242;-67
2022/11/15 04:30:55;;;;;;;13.70;8.50;;;;;;;8.88;89.33;100040.41;4945185;28;20230;-67
2022/11/15 04:33:22;;;;;;;13.03;9.40;;;;;;;8.84;89.18;100032.41;4944815;28;20248;-67
2022/11/15 04:37:11;;;;;;;12.33;8.43;;;;;;;8.92;89.39;100021.09;4945332;28;20746;-67
2022/11/15 04:38:36;;;;;;;14.63;9.00;;;;;;;9.06;88.45;100022.16;4948460;28;20749;-68
2022/11/15 04:41:03;;;;;;;14.10;9.00;;;;;;;9.08;88.51;100006.31;4945886;28;20284;-67
2022/11/15 04:43:29;;;;;;;15.13;9.23;;;;;;;9.05;88.51;100017.72;4946927;28;20239;-67
2022/11/15 04:45:56;;;;;;;13.10;8.67;;;;;;;9.09;88.55;100016.03;4947926;28;20208;-67
2022/11/15 04:48:22;;;;;;;13.53;8.60;;;;;;;9.05;88.51;100017.72;4948501;28;20653;-67
2022/11/15 04:50:49;;;;;;;12.03;8.67;;;;;;;8.96;88.80;100020.25;4944134;28;20234;-67
2022/11/15 04:53:15;;;;;;;14.33;9.10;;;;;;;8.95;89.36;100015.84;4949069;28;20325;-66
2022/11/15 04:55:45;;;;;;;16.47;9.13;;;;;;;8.90;89.58;100012.25;4943766;28;20292;-67
2022/11/15 04:58:12;;;;;;;14.30;9.30;;;;;;;8.97;89.42;100003.53;4947650;28;20232;-67
2022/11/15 05:00:39;;;;;;;12.50;8.90;;;;;;;9.02;89.38;100003.59;4947759;28;20228;-67
2022/11/15 05:05:50;;;;;;;11.60;8.43;;;;;;;9.00;89.73;99993.03;4945040;28;20297;-67
2022/11/15 05:08:16;;;;;;;15.17;8.90;;;;;;;8.97;89.63;99990.34;4948486;28;20292;-66
2022/11/15 05:10:43;;;;;;;13.17;8.47;;;;;;;8.98;89.44;99984.19;4944395;28;20755;-67
2022/11/15 05:13:09;;;;;;;13.30;9.03;;;;;;;9.08;89.12;99983.44;4947455;28;20309;-67
2022/11/15 05:15:35;;;;;;;17.20;9.23;;;;;;;9.20;88.72;99982.69;4945285;28;20765;-67
2022/11/15 05:18:02;;;;;;;12.50;8.90;;;;;;;9.26;87.90;99968.69;4945030;28;20738;-69
2022/11/15 05:20:28;;;;;;;13.70;9.33;;;;;;;9.29;87.51;99969.63;4946863;28;20296;-68
2022/11/15 05:22:55;;;;;;;15.23;8.93;;;;;;;9.16;87.83;99957.09;4945767;28;20320;-68
2022/11/15 05:25:22;;;;;;;17.10;8.73;;;;;;;9.18;87.99;99963.28;4944655;28;20228;-67
2022/11/15 05:27:49;;;;;;;14.97;8.90;;;;;;;9.11;88.03;99974.66;4944946;28;20303;-69
2022/11/15 05:30:16;;;;;;;13.60;9.30;;;;;;;9.08;88.41;99985.19;4948242;28;20228;-66
2022/11/15 05:32:43;;;;;;;14.53;9.20;;;;;;;9.14;88.32;99982.63;4947556;28;20303;-68
2022/11/15 05:35:17;;;;;;;13.30;9.10;;;;;;;9.15;88.23;99968.53;4952514;28;20282;-69
2022/11/15 05:37:43;;;;;;;12.80;9.20;;;;;;;9.10;88.28;99980.81;4948164;28;20297;-68
2022/11/15 05:40:09;;;;;;;13.87;9.40;;;;;;;9.19;88.57;99973.00;4945545;28;20289;-68
2022/11/15 05:42:36;;;;;;;16.20;8.97;;;;;;;9.13;88.62;99979.97;4949673;28;20981;-66
2022/11/15 05:45:05;;;;;;;13.47;9.27;;;;;;;9.23;88.62;99982.75;4952063;28;20753;-69
2022/11/15 05:47:35;;;;;;;14.20;9.30;;;;;;;9.18;88.92;99979.16;4952292;28;20228;-68
2022/11/15 05:50:02;;;;;;;14.00;9.37;;;;;;;9.11;88.91;99980.81;4951223;28;20285;-67
2022/11/15 06:49:11;;;;;;;12.27;8.27;;;;;;;9.41;87.79;99980.31;4893862;29;20245;-66
2022/11/15 06:51:37;;;;;;;13.90;8.40;;;;;;;9.42;87.62;99983.84;4894610;29;20570;-66
2022/11/15 06:54:03;;;;;;;14.67;7.87;;;;;;;9.44;87.62;99992.69;4916433;29;20258;-66
2022/11/15 06:56:29;;;;;;;14.37;8.70;;;;;;;9.47;87.80;99997.13;4915258;29;20698;-66
2022/11/15 06:58:56;;;;;;;15.77;8.40;;;;;;;9.48;88.06;99993.59;4908822;29;20330;-66
2022/11/15 07:01:22;;;;;;;14.97;9.10;;;;;;;9.50;87.83;99981.28;4863009;29;20666;-66
2022/11/15 07:03:49;;;;;;;18.83;8.60;;;;;;;9.64;87.09;99992.91;4880843;29;22376;-65
2022/11/15 07:06:15;;;;;;;15.07;8.67;;;;;;;9.70;86.58;99980.66;4913102;29;20298;-66
2022/11/15 07:08:41;;;;;;;16.70;9.27;;;;;;;9.97;85.92;99997.63;4911619;29;20636;-65
2022/11/15 07:11:08;;;;;;;12.70;8.60;;;;;;;10.08;85.14;99993.34;4911845;29;20219;-65
2022/11/15 07:13:36;;;;;;;13.97;9.07;;;;;;;10.01;85.33;99991.53;4913366;29;20314;-66
2022/11/15 07:16:08;;;;;;;15.43;8.93;;;;;;;9.95;85.62;99989.69;4912899;29;20297;-65
2022/11/15 07:18:35;;;;;;;14.57;8.93;;;;;;;9.88;85.89;99985.22;4914741;29;20729;-66
2022/11/15 07:21:04;;;;;;;17.47;8.93;;;;;;;9.86;86.35;99989.59;4913359;29;20289;-66
2022/11/15 07:23:30;;;;;;;21.20;9.60;;;;;;;9.78;86.54;99993.94;4921818;29;20288;-66
2022/11/15 07:25:58;;;;;;;13.67;8.37;;;;;;;9.75;87.13;99988.63;4918496;29;20674;-66
2022/11/15 07:28:26;;;;;;;17.47;9.13;;;;;;;9.72;87.22;99983.31;4911639;29;20635;-66
2022/11/15 07:30:54;;;;;;;19.27;9.50;;;;;;;9.76;87.36;99989.50;4907172;29;20251;-68
2022/11/15 07:33:20;;;;;;;16.87;9.63;;;;;;;9.87;86.91;99988.72;4908159;29;20299;-67
2022/11/15 07:35:50;;;;;;;13.30;8.43;;;;;;;9.91;87.04;99989.63;4913330;29;20229;-68
2022/11/15 07:38:19;;;;;;;16.77;8.83;;;;;;;9.99;87.07;99995.88;4913793;29;20293;-68
2022/11/15 07:40:47;;;;;;;18.70;8.77;;;;;;;10.07;87.17;99998.63;4911728;29;20204;-68
2022/11/15 07:43:13;;;;;;;12.50;8.70;;;;;;;10.20;86.79;100004.06;4918272;29;20265;-68
2022/11/15 07:45:42;;;;;;;13.70;9.03;;;;;;;10.37;85.62;100004.19;4920520;29;20240;-68
2022/11/15 07:48:09;;;;;;;14.53;8.70;;;;;;;10.46;84.76;100000.75;4915480;29;20211;-69
2022/11/15 07:50:35;;;;;;;16.00;8.33;;;;;;;10.58;84.09;100007.03;4917772;29;20250;-70
2022/11/15 07:53:02;;;;;;;12.60;8.13;;;;;;;10.82;82.07;100008.06;4914118;29;20260;-68
2022/11/15 07:55:29;;;;;;;13.53;8.30;;;;;;;10.90;81.25;100004.59;4918242;29;20772;-68
2022/11/15 07:58:06;;;;;;;13.87;8.00;;;;;;;10.96;80.87;100006.38;4917726;29;20734;-68
2022/11/15 08:00:33;;;;;;;13.17;7.97;;;;;;;11.00;81.42;100005.50;4919636;29;20209;-68
2022/11/15 08:03:10;;;;;;;14.10;8.10;;;;;;;10.97;81.36;100008.16;4917826;29;20312;-69
2022/11/15 08:05:38;;;;;;;13.10;8.60;;;;;;;11.04;81.18;100003.75;4917608;29;20239;-68
2022/11/15 08:08:05;;;;;;;13.50;8.13;;;;;;;11.08;80.31;100000.25;4915416;29;20237;-72
2022/11/15 08:10:32;;;;;;;13.73;7.93;;;;;;;11.01;80.52;99991.38;4916064;29;20704;-71
2022/11/15 08:13:08;;;;;;;13.53;8.60;;;;;;;10.97;79.99;99992.25;4910342;29;20661;-72
2022/11/15 08:15:35;;;;;;;14.90;8.93;;;;;;;11.10;80.83;99983.47;4911629;29;20201;-71
2022/11/15 08:18:16;;;;;;;12.83;8.40;;;;;;;11.01;80.68;99980.78;4912009;29;20252;-70
2022/11/15 08:20:43;;;;;;;14.47;8.33;;;;;;;10.82;81.15;99965.69;4906470;29;20659;-68
2022/11/15 08:23:11;;;;;;;11.27;8.10;;;;;;;10.90;81.35;99988.69;4910759;29;20915;-68
2022/11/15 08:25:38;;;;;;;13.37;8.37;;;;;;;10.90;81.60;99974.56;4911587;29;20295;-68
2022/11/15 08:28:07;;;;;;;12.03;8.10;;;;;;;11.03;81.01;99983.44;4913929;29;20293;-70
2022/11/15 08:30:42;;;;;;;12.47;7.97;;;;;;;11.07;80.66;99977.28;4911916;29;20238;-72
2022/11/15 08:33:13;;;;;;;13.93;8.30;;;;;;;11.03;81.15;99970.19;4906598;29;20298;-72
2022/11/15 08:35:41;;;;;;;14.03;7.97;;;;;;;11.14;81.27;99977.31;4911601;29;20289;-75
2022/11/15 08:38:07;;;;;;;14.37;7.97;;;;;;;11.30;79.99;99973.84;4914927;29;20196;-75
2022/11/15 08:40:35;;;;;;;14.93;7.87;;;;;;;11.34;79.65;99979.16;4917321;29;20297;-76
2022/11/15 08:43:02;;;;;;;11.60;8.23;;;;;;;11.34;79.54;99982.72;4911630;29;20290;-77
2022/11/15 08:45:29;;;;;;;11.53;8.20;;;;;;;11.38;79.58;99973.88;4917758;29;20324;-77
2022/11/15 08:47:56;;;;;;;13.97;8.00;;;;;;;11.44;79.29;99980.97;4916129;29;20222;-77
2022/11/15 08:50:23;;;;;;;12.57;7.87;;;;;;;11.59;79.46;99981.00;4914960;29;20262;-75
2022/11/15 08:52:49;;;;;;;16.03;7.83;;;;;;;11.58;79.24;99976.56;4918389;29;20611;-76
2022/11/15 08:55:15;;;;;;;12.87;8.57;;;;;;;11.57;79.25;99975.69;4916130;29;20231;-76
2022/11/15 08:57:43;;;;;;;16.00;8.27;;;;;;;11.59;79.46;99975.69;4914344;29;20699;-77
2022/11/15 09:00:11;;;;;;;12.93;8.10;;;;;;;11.56;79.70;99971.28;4915322;29;20266;-78
2022/11/15 09:02:38;;;;;;;21.67;9.37;;;;;;;11.58;79.60;99972.16;4918967;29;20509;-77
2022/11/15 09:05:05;;;;;;;17.90;9.40;;;;;;;11.76;78.13;99954.53;4913247;29;20258;-74
2022/11/15 09:07:32;;;;;;;16.27;8.30;;;;;;;11.92;77.77;99972.25;4913628;29;20242;-76
2022/11/15 09:09:58;;;;;;;24.47;9.37;;;;;;;12.00;77.46;99966.94;4916144;29;20204;-75
2022/11/15 09:12:25;;;;;;;17.77;9.20;;;;;;;12.01;77.21;99967.00;4916797;29;20290;-76
2022/11/15 09:14:52;;;;;;;17.17;8.73;;;;;;;11.93;77.77;99971.38;4910801;29;20201;-76
2022/11/15 09:17:18;;;;;;;16.07;9.13;;;;;;;11.96;77.94;99967.84;4915703;29;20204;-75
2022/11/15 09:19:50;;;;;;;17.27;8.40;;;;;;;12.01;77.73;99968.72;4914351;29;20211;-75
2022/11/15 09:22:16;;;;;;;16.27;8.80;;;;;;;12.16;77.03;99963.44;4916482;29;20226;-75
2022/11/15 09:24:42;;;;;;;16.93;8.63;;;;;;;12.14;78.00;99947.50;4914146;29;20247;-74
2022/11/15 09:27:09;;;;;;;18.83;8.30;;;;;;;12.30;77.55;99968.75;4916333;29;20636;-72
2022/11/15 09:29:36;;;;;;;13.10;7.90;;;;;;;12.41;76.62;99978.50;4914725;29;20290;-71
2022/11/15 09:32:02;;;;;;;18.57;8.00;;;;;;;12.44;77.20;99965.22;4915391;29;20286;-72
2022/11/15 09:34:28;;;;;;;17.53;8.70;;;;;;;12.59;77.46;99971.38;4913041;29;20247;-70
2022/11/15 09:36:54;;;;;;;19.43;8.83;;;;;;;12.70;76.92;99956.28;4915400;29;20227;-70
2022/11/15 09:39:21;;;;;;;16.47;8.30;;;;;;;12.77;76.65;99966.00;4916771;29;20738;-69
2022/11/15 09:42:24;;;;;;;21.03;8.13;;;;;;;12.92;75.13;99966.00;4922116;29;20245;-69
2022/11/15 09:45:12;;;;;;;15.13;7.80;;;;;;;12.96;74.29;99958.91;4921518;29;20309;-69
2022/11/15 09:48:24;;;;;;;14.40;8.70;;;;;;;12.82;74.70;99958.94;4915856;29;20298;-69
2022/11/15 09:50:53;;;;;;;18.80;8.50;;;;;;;12.72;75.35;99943.88;4921060;29;20237;-70
2022/11/15 09:53:29;;;;;;;12.37;7.97;;;;;;;12.73;74.90;99935.91;4918334;29;20727;-69
2022/11/15 09:56:35;;;;;;;15.87;8.73;;;;;;;12.71;75.67;99947.44;4913927;29;20195;-69
2022/11/15 09:59:22;;;;;;;12.20;7.97;;;;;;;12.79;75.15;99942.97;4919907;29;20242;-69
2022/11/15 10:02:08;;;;;;;10.60;7.53;;;;;;;12.86;75.43;99953.63;4916873;29;20235;-69
2022/11/15 10:04:36;;;;;;;16.27;8.13;;;;;;;12.88;75.22;99955.38;4917917;29;20255;-69
2022/11/15 10:07:18;;;;;;;12.13;7.83;;;;;;;12.81;75.48;99951.88;4910491;29;20619;-69
2022/11/15 10:09:53;;;;;;;12.77;7.77;;;;;;;12.89;75.17;99954.50;4916978;29;20235;-69
2022/11/15 10:12:19;;;;;;;15.40;8.10;;;;;;;12.81;75.01;99949.22;4913333;29;20199;-69
2022/11/15 10:14:48;;;;;;;12.80;7.93;;;;;;;12.94;75.62;99953.59;4912605;29;20676;-69
2022/11/15 10:17:33;;;;;;;14.00;7.67;;;;;;;13.06;75.03;99945.56;4914874;29;20200;-69
2022/11/15 10:20:17;;;;;;;14.17;8.20;;;;;;;13.12;75.18;99929.56;4914222;29;20223;-69
2022/11/15 10:22:50;;;;;;;15.83;7.57;;;;;;;13.21;74.43;99927.78;4915655;29;20215;-69
2022/11/15 10:25:26;;;;;;;15.73;8.43;;;;;;;13.30;74.57;99931.31;4915981;29;20310;-69
2022/11/15 10:28:09;;;;;;;12.90;8.13;;;;;;;13.35;74.25;99937.50;4914768;29;20202;-68
2022/11/15 10:30:41;;;;;;;12.77;7.53;;;;;;;13.46;73.86;99924.13;4913497;29;20234;-68
2022/11/15 10:33:38;;;;;;;15.30;8.07;;;;;;;13.54;73.36;99929.41;4910154;29;20398;-69
2022/11/15 10:36:13;;;;;;;11.37;7.27;;;;;;;13.63;72.65;99922.25;4908017;29;20291;-69
2022/11/15 10:38:52;;;;;;;9.90;7.23;;;;;;;13.82;72.61;99914.13;4915852;29;20475;-69
2022/11/15 10:41:18;;;;;;;12.63;7.77;;;;;;;13.93;71.68;99912.28;4915456;29;20230;-69
2022/11/15 10:44:02;;;;;;;11.57;7.40;;;;;;;14.03;70.53;99892.69;4920767;29;20261;-68
2022/11/15 10:46:29;;;;;;;9.80;7.40;;;;;;;13.96;70.73;99882.97;4918374;29;20243;-69
2022/11/15 10:49:16;;;;;;;11.97;7.00;;;;;;;13.96;70.41;99894.50;4914138;29;20287;-69
2022/11/15 10:51:56;;;;;;;12.03;7.20;;;;;;;13.74;71.05;99888.47;4916963;29;20204;-69
2022/11/15 10:54:40;;;;;;;11.47;6.93;;;;;;;13.67;71.65;99878.78;4918568;29;20638;-68
2022/11/15 10:57:22;;;;;;;11.23;7.40;;;;;;;13.66;72.24;99869.03;4916279;29;20235;-69
2022/11/15 10:59:53;;;;;;;13.00;7.03;;;;;;;13.61;72.49;99859.28;4916737;29;20715;-69
2022/11/15 11:02:41;;;;;;;12.10;7.60;;;;;;;13.60;72.65;99844.22;4918844;29;20278;-69
2022/11/15 11:05:31;;;;;;;16.20;7.57;;;;;;;13.66;72.64;99847.72;4913750;29;20255;-69
2022/11/15 11:08:21;;;;;;;13.30;7.53;;;;;;;13.76;72.44;99838.78;4913186;29;20199;-67
2022/11/15 11:10:59;;;;;;;11.53;7.10;;;;;;;13.82;72.35;99828.97;4912140;29;20231;-69
2022/11/15 11:13:39;;;;;;;12.00;7.57;;;;;;;13.51;72.55;99829.22;4914362;29;20229;-67
2022/11/15 11:16:14;;;;;;;16.90;7.70;;;;;;;13.42;73.82;99829.28;4909601;29;20231;-68
2022/11/15 11:19:12;;;;;;;13.77;8.60;;;;;;;13.41;73.90;99827.50;4912991;29;20501;-67
2022/11/15 11:21:54;;;;;;;12.77;7.77;;;;;;;13.47;73.66;99819.50;4912540;29;20581;-68
2022/11/15 11:24:34;;;;;;;11.93;7.70;;;;;;;13.53;73.20;99818.56;4913796;29;20310;-68
2022/11/15 11:27:38;;;;;;;14.33;7.73;;;;;;;13.53;73.24;99818.56;4914166;29;20235;-69
2022/11/15 11:30:16;;;;;;;11.17;7.23;;;;;;;13.59;72.91;99822.03;4910499;29;20210;-68
2022/11/15 11:33:05;;;;;;;13.97;7.83;;;;;;;13.76;72.53;99829.91;4911840;29;20655;-68
2022/11/15 11:35:49;;;;;;;13.07;8.47;;;;;;;13.87;71.96;99833.34;4912586;29;20262;-69
2022/11/15 11:38:43;;;;;;;12.93;7.97;;;;;;;14.00;71.95;99812.81;4911664;29;20238;-67
2022/11/15 11:41:44;;;;;;;15.23;7.33;;;;;;;13.96;71.66;99821.72;4913210;29;20688;-69
2022/11/15 11:44:33;;;;;;;14.73;7.67;;;;;;;14.07;71.70;99817.19;4907946;29;20722;-69
2022/11/15 11:47:11;;;;;;;11.03;7.00;;;;;;;14.21;71.27;99815.28;4914132;29;20247;-69
2022/11/15 11:49:46;;;;;;;12.67;7.00;;;;;;;14.30;70.56;99809.84;4912919;29;20853;-68
2022/11/15 11:52:16;;;;;;;13.50;7.30;;;;;;;14.45;69.95;99800.84;4913752;29;20234;-67
2022/11/15 11:55:00;;;;;;;12.23;7.40;;;;;;;14.55;69.72;99797.16;4913912;29;20255;-67
2022/11/15 11:57:50;;;;;;;11.37;7.53;;;;;;;14.66;69.68;99789.91;4912114;29;20648;-67
2022/11/15 12:00:27;;;;;;;10.97;6.93;;;;;;;14.74;68.28;99790.69;4909173;29;20286;-67
2022/11/15 12:03:39;;;;;;;9.57;6.97;;;;;;;14.76;68.12;99788.00;4915114;29;20310;-67
2022/11/15 12:06:11;;;;;;;10.97;6.77;;;;;;;14.68;68.49;99792.53;4907904;29;20243;-66
2022/11/15 12:08:47;;;;;;;10.80;6.70;;;;;;;14.68;68.15;99782.75;4909928;29;20266;-65
2022/11/15 12:11:28;;;;;;;13.20;6.63;;;;;;;14.52;68.37;99777.66;4922764;29;20237;-67
2022/11/15 12:13:59;;;;;;;12.50;6.90;;;;;;;14.48;68.55;99775.94;4930856;29;20297;-66
2022/11/15 12:16:31;;;;;;;13.47;6.60;;;;;;;14.34;68.75;99770.72;4932071;29;20648;-67
2022/11/15 12:19:04;;;;;;;12.10;6.07;;;;;;;14.36;68.93;99766.25;4930175;29;20278;-66
2022/11/15 12:21:50;;;;;;;10.30;6.73;;;;;;;14.33;69.24;99771.63;4932059;29;20230;-65
2022/11/15 12:24:16;;;;;;;10.70;6.40;;;;;;;14.41;69.22;99762.66;4927643;29;20222;-68
2022/11/15 12:26:59;;;;;;;11.53;6.37;;;;;;;14.51;68.84;99759.91;4930694;29;20627;-67
2022/11/15 12:29:48;;;;;;;11.30;6.07;;;;;;;14.56;68.63;99739.41;4929686;29;20194;-66
2022/11/15 12:32:26;;;;;;;9.00;6.83;;;;;;;14.59;68.81;99748.25;4926326;29;20199;-66
2022/11/15 12:34:54;;;;;;;10.97;5.70;;;;;;;14.68;68.53;99745.44;4930621;29;20289;-66
2022/11/15 12:37:37;;;;;;;11.27;6.20;;;;;;;14.78;68.06;99745.31;4930484;29;20250;-65
2022/11/15 12:40:12;;;;;;;11.23;5.70;;;;;;;14.84;67.97;99739.94;4930488;29;20673;-67
2022/11/15 12:42:43;;;;;;;9.70;5.90;;;;;;;14.83;67.29;99739.06;4931133;29;20226;-66
2022/11/15 12:45:27;;;;;;;8.83;5.60;;;;;;;14.88;67.54;99730.97;4928984;29;20254;-65
2022/11/15 12:48:15;;;;;;;7.43;5.30;;;;;;;14.82;67.40;99734.63;4931212;29;20297;-66
2022/11/15 12:50:54;;;;;;;8.20;5.63;;;;;;;14.78;68.35;99724.88;4930336;29;20245;-66
2022/11/15 12:53:28;;;;;;;10.67;6.70;;;;;;;14.67;68.76;99724.16;4931210;29;20580;-67
2022/11/15 12:56:20;;;;;;;11.00;6.07;;;;;;;14.57;69.01;99720.75;4926845;29;20195;-65